| time (UTC) | temp C | wind direction | speed KPH | gust KPH | rain 1hr cm | rain 24hr cm | rain mn cm | humidity % | barometer mb |
| 20260904214303 | 22 | 254 | 0.0 | 0.0 | 0.00 | 0.00 | 0.00 | 71 | 1015.8 |
| 20260904213804 | 22 | 255 | 0.0 | 0.0 | 0.00 | 0.00 | 0.00 | 70 | 1015.8 |
| 20260904213304 | 23 | 254 | 0.0 | 0.0 | 0.00 | 0.00 | 0.00 | 68 | 1015.7 |
| 20260904212804 | 23 | 255 | 0.0 | 0.0 | 0.00 | 0.00 | 0.00 | 67 | 1015.5 |
| 20260904211804 | 23 | 313 | 0.0 | 0.0 | 0.00 | 0.00 | 0.00 | 66 | 1015.5 |
| 20260904210803 | 23 | 302 | 0.0 | 0.0 | 0.00 | 0.00 | 0.00 | 66 | 1015.5 |
| 20260904210304 | 23 | 211 | 0.0 | 0.0 | 0.00 | 0.00 | 0.00 | 67 | 1015.5 |
| 20260904205804 | 23 | 211 | 0.0 | 0.0 | 0.00 | 0.00 | 0.00 | 66 | 1015.5 |
| 20260904205305 | 22 | 314 | 0.0 | 3.2 | 0.00 | 0.00 | 0.00 | 69 | 1015.5 |
| 20260904204804 | 22 | 329 | 0.0 | 1.6 | 0.00 | 0.00 | 0.00 | 73 | 1015.5 |
| 20260904204303 | 21 | 331 | 0.0 | 0.0 | 0.00 | 0.00 | 0.00 | 75 | 1015.5 |
| 20260904203805 | 21 | 331 | 0.0 | 0.0 | 0.00 | 0.00 | 0.00 | 75 | 1015.5 |
| 20260904203304 | 22 | 331 | 0.0 | 0.0 | 0.00 | 0.00 | 0.00 | 75 | 1015.4 |
| 20260904202803 | 22 | 331 | 0.0 | 0.0 | 0.00 | 0.00 | 0.00 | 75 | 1015.4 |
| 20260904202306 | 22 | 331 | 0.0 | 0.0 | 0.00 | 0.00 | 0.00 | 74 | 1015.4 |
| 20260904201803 | 22 | 331 | 0.0 | 0.0 | 0.00 | 0.00 | 0.00 | 74 | 1015.4 |
| 20260904201304 | 22 | 331 | 0.0 | 0.0 | 0.00 | 0.00 | 0.00 | 72 | 1015.3 |
| 20260904200804 | 22 | 331 | 0.0 | 0.0 | 0.00 | 0.00 | 0.00 | 72 | 1015.3 |
| 20260904200304 | 22 | 331 | 0.0 | 0.0 | 0.00 | 0.00 | 0.00 | 71 | 1015.3 |
| 20260904195804 | 23 | 331 | 0.0 | 0.0 | 0.00 | 0.00 | 0.00 | 70 | 1015.3 |
| 20260904195305 | 23 | 331 | 0.0 | 0.0 | 0.00 | 0.00 | 0.00 | 69 | 1015.2 |
| 20260904194303 | 23 | 331 | 0.0 | 0.0 | 0.00 | 0.00 | 0.00 | 68 | 1015.2 |
| 20260904193804 | 24 | 331 | 0.0 | 0.0 | 0.00 | 0.00 | 0.00 | 66 | 1015.0 |
| 20260904192803 | 25 | 331 | 0.0 | 0.0 | 0.00 | 0.00 | 0.00 | 63 | 1015.0 |
| 20260904192306 | 25 | 331 | 0.0 | 0.0 | 0.00 | 0.00 | 0.00 | 61 | 1014.7 |
| 20260904191803 | 26 | 331 | 0.0 | 3.2 | 0.00 | 0.00 | 0.00 | 59 | 1014.7 |
| 20260904191304 | 26 | 322 | 0.0 | 1.6 | 0.00 | 0.00 | 0.00 | 58 | 1014.7 |
| 20260904190803 | 26 | 322 | 0.0 | 1.6 | 0.00 | 0.00 | 0.00 | 58 | 1014.7 |
| 20260904190304 | 26 | 322 | 0.0 | 1.6 | 0.00 | 0.00 | 0.00 | 58 | 1014.7 |
| 20260904185804 | 26 | 217 | 0.0 | 3.2 | 0.00 | 0.00 | 0.00 | 57 | 1014.7 |
| 20260904184803 | 26 | 291 | 0.0 | 3.2 | 0.00 | 0.00 | 0.00 | 58 | 1014.7 |
| 20260904184304 | 26 | 289 | 1.6 | 3.2 | 0.00 | 0.00 | 0.00 | 58 | 1014.7 |
| 20260904183804 | 26 | 254 | 0.0 | 0.0 | 0.00 | 0.00 | 0.00 | 58 | 1014.5 |
| 20260904182804 | 26 | 277 | 0.0 | 1.6 | 0.00 | 0.00 | 0.00 | 57 | 1014.5 |
| 20260904182306 | 27 | 277 | 0.0 | 3.2 | 0.00 | 0.00 | 0.00 | 55 | 1014.5 |
| 20260904181304 | 27 | 299 | 0.0 | 1.6 | 0.00 | 0.00 | 0.00 | 54 | 1014.4 |
| 20260904180804 | 27 | 240 | 0.0 | 1.6 | 0.00 | 0.00 | 0.00 | 54 | 1014.4 |
| 20260904180303 | 27 | 329 | 0.0 | 3.2 | 0.00 | 0.00 | 0.00 | 52 | 1014.1 |
| 20260904175804 | 28 | 315 | 0.0 | 3.2 | 0.00 | 0.00 | 0.00 | 52 | 1014.1 |
| 20260904175305 | 28 | 269 | 1.6 | 4.8 | 0.00 | 0.00 | 0.00 | 50 | 1014.1 |
| 20260904174804 | 28 | 287 | 1.6 | 4.8 | 0.00 | 0.00 | 0.00 | 51 | 1013.8 |
| 20260904174303 | 28 | 284 | 1.6 | 8.0 | 0.00 | 0.00 | 0.00 | 51 | 1013.8 |
| 20260904173804 | 28 | 309 | 1.6 | 3.2 | 0.00 | 0.00 | 0.00 | 51 | 1013.8 |
| 20260904173303 | 28 | 269 | 1.6 | 8.0 | 0.00 | 0.00 | 0.00 | 50 | 1013.8 |
| 20260904172804 | 29 | 7 | 1.6 | 8.0 | 0.00 | 0.00 | 0.00 | 50 | 1013.8 |
| 20260904172305 | 29 | 268 | 0.0 | 4.8 | 0.00 | 0.00 | 0.00 | 50 | 1013.8 |
| 20260904171804 | 29 | 307 | 1.6 | 8.0 | 0.00 | 0.00 | 0.00 | 50 | 1013.8 |
| 20260904171303 | 29 | 277 | 1.6 | 8.0 | 0.00 | 0.00 | 0.00 | 49 | 1013.8 |
| 20260904170803 | 30 | 276 | 1.6 | 8.0 | 0.00 | 0.00 | 0.00 | 48 | 1013.8 |
| 20260904170303 | 30 | 287 | 1.6 | 11.3 | 0.00 | 0.00 | 0.00 | 48 | 1013.8 |
| 20260904165804 | 30 | 306 | 3.2 | 19.3 | 0.00 | 0.00 | 0.00 | 47 | 1013.8 |
| 20260904164803 | 30 | 269 | 4.8 | 19.3 | 0.00 | 0.00 | 0.00 | 46 | 1013.8 |
| 20260904163804 | 31 | 250 | 4.8 | 16.1 | 0.00 | 0.00 | 0.00 | 44 | 1013.8 |
| 20260904163304 | 31 | 262 | 0.0 | 11.3 | 0.00 | 0.00 | 0.00 | 44 | 1013.8 |
| 20260904162803 | 31 | 331 | 1.6 | 8.0 | 0.00 | 0.00 | 0.00 | 44 | 1013.8 |
| 20260904162306 | 31 | 290 | 3.2 | 14.5 | 0.00 | 0.00 | 0.00 | 43 | 1013.8 |
| 20260904161804 | 31 | 269 | 3.2 | 12.9 | 0.00 | 0.00 | 0.00 | 42 | 1013.8 |
| 20260904161303 | 32 | 322 | 3.2 | 19.3 | 0.00 | 0.00 | 0.00 | 42 | 1013.8 |
| 20260904160804 | 32 | 294 | 1.6 | 14.5 | 0.00 | 0.00 | 0.00 | 43 | 1013.8 |
| 20260904160304 | 32 | 4 | 3.2 | 19.3 | 0.00 | 0.00 | 0.00 | 42 | 1013.7 |
| 20260904154804 | 32 | 302 | 4.8 | 14.5 | 0.00 | 0.00 | 0.00 | 40 | 1013.6 |
| 20260904154303 | 32 | 271 | 3.2 | 11.3 | 0.00 | 0.00 | 0.00 | 39 | 1013.8 |
| 20260904153803 | 33 | 344 | 0.0 | 4.8 | 0.00 | 0.00 | 0.00 | 40 | 1013.8 |
| 20260904153304 | 32 | 308 | 1.6 | 12.9 | 0.00 | 0.00 | 0.00 | 40 | 1013.8 |
| 20260904152804 | 32 | 329 | 1.6 | 14.5 | 0.00 | 0.00 | 0.00 | 39 | 1013.8 |
| 20260904151803 | 33 | 240 | 1.6 | 9.7 | 0.00 | 0.00 | 0.00 | 39 | 1013.8 |
| 20260904150804 | 33 | 277 | 3.2 | 11.3 | 0.00 | 0.00 | 0.00 | 39 | 1013.8 |
| 20260904145804 | 33 | 279 | 3.2 | 9.7 | 0.00 | 0.00 | 0.00 | 39 | 1013.7 |
| 20260904145306 | 33 | 322 | 1.6 | 11.3 | 0.00 | 0.00 | 0.00 | 38 | 1013.7 |
| 20260904144803 | 33 | 320 | 3.2 | 11.3 | 0.00 | 0.00 | 0.00 | 39 | 1014.2 |
| 20260904144304 | 33 | 1 | 6.4 | 16.1 | 0.00 | 0.00 | 0.00 | 38 | 1014.2 |
| 20260904143804 | 33 | 252 | 1.6 | 8.0 | 0.00 | 0.00 | 0.00 | 38 | 1014.2 |
| 20260904143303 | 33 | 266 | 0.0 | 4.8 | 0.00 | 0.00 | 0.00 | 38 | 1014.2 |
| 20260904142804 | 34 | 253 | 1.6 | 9.7 | 0.00 | 0.00 | 0.00 | 37 | 1014.2 |
| 20260904142306 | 33 | 253 | 0.0 | 3.2 | 0.00 | 0.00 | 0.00 | 40 | 1014.2 |
| 20260904141803 | 33 | 18 | 0.0 | 1.6 | 0.00 | 0.00 | 0.00 | 40 | 1014.2 |
| 20260904141303 | 33 | 322 | 3.2 | 12.9 | 0.00 | 0.00 | 0.00 | 39 | 1014.4 |
| 20260904140803 | 33 | 276 | 1.6 | 9.7 | 0.00 | 0.00 | 0.00 | 39 | 1014.4 |
| 20260904140304 | 33 | 294 | 0.0 | 1.6 | 0.00 | 0.00 | 0.00 | 39 | 1014.4 |
| 20260904135804 | 33 | 288 | 0.0 | 8.0 | 0.00 | 0.00 | 0.00 | 40 | 1014.4 |
| 20260904135306 | 33 | 266 | 0.0 | 3.2 | 0.00 | 0.00 | 0.00 | 39 | 1014.4 |
| 20260904134804 | 33 | 199 | 0.0 | 3.2 | 0.00 | 0.00 | 0.00 | 39 | 1014.4 |
| 20260904134303 | 33 | 295 | 0.0 | 4.8 | 0.00 | 0.00 | 0.00 | 41 | 1015.0 |
| 20260904133803 | 32 | 20 | 0.0 | 14.5 | 0.00 | 0.00 | 0.00 | 40 | 1015.0 |
| 20260904133304 | 33 | 321 | 3.2 | 9.7 | 0.00 | 0.00 | 0.00 | 40 | 1015.0 |
| 20260904132803 | 32 | 136 | 3.2 | 12.9 | 0.00 | 0.00 | 0.00 | 42 | 1015.0 |
| 20260904132306 | 32 | 143 | 3.2 | 11.3 | 0.00 | 0.00 | 0.00 | 42 | 1015.0 |
| 20260904131803 | 32 | 339 | 3.2 | 11.3 | 0.00 | 0.00 | 0.00 | 43 | 1015.0 |
| 20260904131303 | 32 | 315 | 1.6 | 12.9 | 0.00 | 0.00 | 0.00 | 41 | 1015.0 |
| 20260904130804 | 32 | 290 | 3.2 | 8.0 | 0.00 | 0.00 | 0.00 | 42 | 1015.0 |
| 20260904125803 | 32 | 354 | 0.0 | 4.8 | 0.00 | 0.00 | 0.00 | 47 | 1015.6 |
| 20260904125305 | 32 | 102 | 1.6 | 11.3 | 0.00 | 0.00 | 0.00 | 45 | 1015.6 |
| 20260904124803 | 32 | 235 | 3.2 | 12.9 | 0.00 | 0.00 | 0.00 | 43 | 1015.6 |
| 20260904124303 | 31 | 320 | 1.6 | 11.3 | 0.00 | 0.00 | 0.00 | 44 | 1015.6 |
| 20260904123803 | 31 | 280 | 0.0 | 8.0 | 0.00 | 0.00 | 0.00 | 45 | 1015.6 |
| 20260904123304 | 31 | 277 | 1.6 | 12.9 | 0.00 | 0.00 | 0.00 | 45 | 1016.2 |
| 20260904122306 | 31 | 262 | 1.6 | 8.0 | 0.00 | 0.00 | 0.00 | 46 | 1016.2 |
| 20260904121803 | 31 | 188 | 0.0 | 4.8 | 0.00 | 0.00 | 0.00 | 46 | 1016.2 |
| 20260904120804 | 31 | 308 | 0.0 | 8.0 | 0.00 | 0.00 | 0.00 | 47 | 1016.2 |
| 20260904115804 | 31 | 337 | 0.0 | 12.9 | 0.00 | 0.00 | 0.00 | 46 | 1017.1 |
| 20260904115306 | 31 | 269 | 1.6 | 9.7 | 0.00 | 0.00 | 0.00 | 48 | 1017.1 |
| 20260904114804 | 31 | 303 | 1.6 | 9.7 | 0.00 | 0.00 | 0.00 | 47 | 1017.1 |
| 20260904114304 | 31 | 287 | 1.6 | 11.3 | 0.00 | 0.00 | 0.00 | 47 | 1017.1 |
| 20260904113804 | 31 | 321 | 1.6 | 8.0 | 0.00 | 0.00 | 0.00 | 48 | 1017.1 |
| 20260904113304 | 30 | 343 | 1.6 | 8.0 | 0.00 | 0.00 | 0.00 | 48 | 1017.1 |
| 20260904112803 | 31 | 291 | 0.0 | 8.0 | 0.00 | 0.00 | 0.00 | 48 | 1017.1 |
| 20260904112306 | 30 | 2 | 1.6 | 12.9 | 0.00 | 0.00 | 0.00 | 49 | 1017.1 |
| 20260904111804 | 30 | 279 | 1.6 | 8.0 | 0.00 | 0.00 | 0.00 | 48 | 1017.1 |
| 20260904111303 | 30 | 311 | 1.6 | 16.1 | 0.00 | 0.00 | 0.00 | 49 | 1017.1 |
| 20260904110803 | 30 | 28 | 0.0 | 3.2 | 0.00 | 0.00 | 0.00 | 50 | 1017.1 |
| 20260904110304 | 30 | 358 | 1.6 | 14.5 | 0.00 | 0.00 | 0.00 | 49 | 1017.1 |
| 20260904105804 | 30 | 256 | 0.0 | 8.0 | 0.00 | 0.00 | 0.00 | 49 | 1017.1 |
| 20260904104303 | 30 | 304 | 1.6 | 8.0 | 0.00 | 0.00 | 0.00 | 50 | 1017.5 |
| 20260904103804 | 30 | 313 | 1.6 | 8.0 | 0.00 | 0.00 | 0.00 | 49 | 1017.5 |
| 20260904103303 | 30 | 277 | 0.0 | 3.2 | 0.00 | 0.00 | 0.00 | 51 | 1018.3 |
| 20260904102803 | 30 | 301 | 0.0 | 8.0 | 0.00 | 0.00 | 0.00 | 51 | 1018.3 |
| 20260904102306 | 30 | 108 | 0.0 | 4.8 | 0.00 | 0.00 | 0.00 | 52 | 1018.3 |
| 20260904101803 | 30 | 298 | 0.0 | 3.2 | 0.00 | 0.00 | 0.00 | 50 | 1018.3 |
| 20260904101304 | 29 | 259 | 0.0 | 9.7 | 0.00 | 0.00 | 0.00 | 52 | 1018.3 |
| 20260904100804 | 29 | 242 | 0.0 | 11.3 | 0.00 | 0.00 | 0.00 | 52 | 1018.3 |
| 20260904100304 | 29 | 264 | 0.0 | 3.2 | 0.00 | 0.00 | 0.00 | 52 | 1018.3 |
| 20260904095803 | 28 | 245 | 1.6 | 9.7 | 0.00 | 0.00 | 0.00 | 53 | 1018.3 |
| 20260904095306 | 28 | 347 | 1.6 | 3.2 | 0.00 | 0.00 | 0.00 | 54 | 1018.3 |
| 20260904094804 | 28 | 229 | 3.2 | 12.9 | 0.00 | 0.00 | 0.00 | 54 | 1018.3 |
| 20260904094303 | 28 | 331 | 3.2 | 12.9 | 0.00 | 0.00 | 0.00 | 54 | 1018.3 |
| 20260904093804 | 27 | 320 | 1.6 | 11.3 | 0.00 | 0.00 | 0.00 | 56 | 1018.9 |
| 20260904093303 | 27 | 301 | 3.2 | 9.7 | 0.00 | 0.00 | 0.00 | 55 | 1018.9 |
| 20260904092803 | 27 | 266 | 3.2 | 12.9 | 0.00 | 0.00 | 0.00 | 57 | 1018.9 |
| 20260904092306 | 27 | 293 | 1.6 | 9.7 | 0.00 | 0.00 | 0.00 | 59 | 1018.9 |
| 20260904091803 | 27 | 351 | 1.6 | 4.8 | 0.00 | 0.00 | 0.00 | 60 | 1018.9 |
| 20260904091304 | 26 | 69 | 0.0 | 8.0 | 0.00 | 0.00 | 0.00 | 61 | 1018.9 |
| 20260904090303 | 26 | 351 | 0.0 | 4.8 | 0.00 | 0.00 | 0.00 | 62 | 1018.9 |
| 20260904085804 | 26 | 314 | 1.6 | 8.0 | 0.00 | 0.00 | 0.00 | 61 | 1018.9 |
| 20260904085306 | 26 | 287 | 0.0 | 8.0 | 0.00 | 0.00 | 0.00 | 62 | 1018.9 |
| 20260904084803 | 26 | 325 | 0.0 | 9.7 | 0.00 | 0.00 | 0.00 | 62 | 1018.9 |
| 20260904084304 | 25 | 296 | 0.0 | 8.0 | 0.00 | 0.00 | 0.00 | 63 | 1018.9 |
| 20260904083804 | 25 | 260 | 0.0 | 1.6 | 0.00 | 0.00 | 0.00 | 64 | 1019.6 |
| 20260904082803 | 24 | 160 | 0.0 | 0.0 | 0.00 | 0.00 | 0.00 | 65 | 1019.6 |
| 20260904082305 | 23 | 160 | 0.0 | 0.0 | 0.00 | 0.00 | 0.00 | 65 | 1019.6 |
| 20260904081804 | 23 | 63 | 0.0 | 0.0 | 0.00 | 0.00 | 0.00 | 67 | 1019.6 |
| 20260904080804 | 23 | 173 | 0.0 | 1.6 | 0.00 | 0.00 | 0.00 | 67 | 1019.6 |
| 20260904075306 | 22 | 78 | 0.0 | 1.6 | 0.00 | 0.00 | 0.00 | 69 | 1019.6 |
| 20260904074803 | 22 | 163 | 0.0 | 1.6 | 0.00 | 0.00 | 0.00 | 70 | 1019.6 |
| 20260904074303 | 21 | 91 | 0.0 | 0.0 | 0.00 | 0.00 | 0.00 | 70 | 1019.7 |
| 20260904073804 | 21 | 54 | 0.0 | 1.6 | 0.00 | 0.00 | 0.00 | 72 | 1019.7 |
| 20260904073303 | 21 | 91 | 0.0 | 1.6 | 0.00 | 0.00 | 0.00 | 73 | 1019.7 |
| 20260904072804 | 21 | 107 | 0.0 | 0.0 | 0.00 | 0.00 | 0.00 | 74 | 1019.7 |
| 20260904072306 | 20 | 96 | 0.0 | 0.0 | 0.00 | 0.00 | 0.00 | 74 | 1020.1 |
| 20260904071804 | 20 | 98 | 0.0 | 0.0 | 0.00 | 0.00 | 0.00 | 74 | 1020.1 |
| 20260904070303 | 20 | 80 | 0.0 | 0.0 | 0.00 | 0.00 | 0.00 | 76 | 1020.1 |
| 20260904065803 | 19 | 80 | 0.0 | 0.0 | 0.00 | 0.00 | 0.00 | 78 | 1020.1 |
| 20260904064803 | 18 | 67 | 0.0 | 0.0 | 0.00 | 0.00 | 0.00 | 80 | 1020.1 |
| 20260904064304 | 18 | 84 | 0.0 | 0.0 | 0.00 | 0.00 | 0.00 | 80 | 1020.1 |
| 20260904063804 | 18 | 189 | 0.0 | 0.0 | 0.00 | 0.00 | 0.00 | 82 | 1020.1 |
| 20260904063304 | 17 | 189 | 0.0 | 0.0 | 0.00 | 0.00 | 0.00 | 82 | 1020.1 |
| 20260904062803 | 17 | 189 | 0.0 | 0.0 | 0.00 | 0.00 | 0.00 | 83 | 1020.2 |
| 20260904062306 | 17 | 158 | 0.0 | 1.6 | 0.00 | 0.00 | 0.00 | 83 | 1020.3 |
| 20260904061803 | 17 | 156 | 0.0 | 0.0 | 0.00 | 0.00 | 0.00 | 85 | 1020.3 |
| 20260904060804 | 16 | 156 | 0.0 | 0.0 | 0.00 | 0.00 | 0.00 | 87 | 1020.3 |
| 20260904055804 | 16 | 156 | 0.0 | 0.0 | 0.00 | 0.00 | 0.00 | 88 | 1020.3 |
| 20260904054803 | 15 | 156 | 0.0 | 0.0 | 0.00 | 0.00 | 0.00 | 89 | 1020.3 |
| 20260904054303 | 15 | 156 | 0.0 | 0.0 | 0.00 | 0.00 | 0.00 | 89 | 1020.3 |
| 20260904053804 | 15 | 156 | 0.0 | 0.0 | 0.00 | 0.00 | 0.00 | 91 | 1020.3 |
| 20260904053303 | 15 | 156 | 0.0 | 0.0 | 0.00 | 0.00 | 0.00 | 91 | 1020.3 |
| 20260904052804 | 15 | 156 | 0.0 | 0.0 | 0.00 | 0.00 | 0.00 | 91 | 1020.2 |
| 20260904052306 | 15 | 156 | 0.0 | 0.0 | 0.00 | 0.00 | 0.00 | 92 | 1020.2 |
| 20260904051804 | 15 | 156 | 0.0 | 0.0 | 0.00 | 0.00 | 0.00 | 93 | 1020.2 |
| 20260904051304 | 15 | 156 | 0.0 | 0.0 | 0.00 | 0.00 | 0.00 | 92 | 1020.2 |
| 20260904050804 | 15 | 156 | 0.0 | 0.0 | 0.00 | 0.00 | 0.00 | 92 | 1020.2 |
| 20260904050303 | 15 | 156 | 0.0 | 0.0 | 0.00 | 0.00 | 0.00 | 92 | 1020.2 |
| 20260904045803 | 15 | 156 | 0.0 | 0.0 | 0.00 | 0.00 | 0.00 | 92 | 1020.2 |
| 20260904045306 | 15 | 156 | 0.0 | 0.0 | 0.00 | 0.00 | 0.00 | 91 | 1020.2 |
| 20260904044804 | 15 | 156 | 0.0 | 0.0 | 0.00 | 0.00 | 0.00 | 92 | 1020.2 |
| 20260904043303 | 15 | 156 | 0.0 | 0.0 | 0.00 | 0.00 | 0.00 | 91 | 1020.2 |
| 20260904042803 | 15 | 156 | 0.0 | 0.0 | 0.00 | 0.00 | 0.00 | 91 | 1020.8 |
| 20260904042306 | 15 | 156 | 0.0 | 0.0 | 0.00 | 0.00 | 0.00 | 91 | 1020.8 |
| 20260904041803 | 15 | 156 | 0.0 | 0.0 | 0.00 | 0.00 | 0.00 | 90 | 1020.8 |
| 20260904041304 | 15 | 156 | 0.0 | 0.0 | 0.00 | 0.00 | 0.00 | 89 | 1020.8 |
| 20260904040804 | 15 | 156 | 0.0 | 0.0 | 0.00 | 0.00 | 0.00 | 88 | 1020.8 |
| 20260904040303 | 16 | 156 | 0.0 | 0.0 | 0.00 | 0.00 | 0.00 | 87 | 1020.8 |
| 20260904035803 | 16 | 156 | 0.0 | 0.0 | 0.00 | 0.00 | 0.00 | 86 | 1020.8 |
| 20260904035306 | 16 | 156 | 0.0 | 0.0 | 0.00 | 0.00 | 0.00 | 86 | 1020.8 |
| 20260904034803 | 16 | 156 | 0.0 | 0.0 | 0.00 | 0.00 | 0.00 | 86 | 1020.8 |
| 20260904034304 | 16 | 156 | 0.0 | 0.0 | 0.00 | 0.00 | 0.00 | 87 | 1020.8 |
| 20260904033803 | 16 | 156 | 0.0 | 0.0 | 0.00 | 0.00 | 0.00 | 87 | 1020.8 |
| 20260904033303 | 16 | 156 | 0.0 | 0.0 | 0.00 | 0.00 | 0.00 | 86 | 1020.8 |
| 20260904032803 | 16 | 156 | 0.0 | 0.0 | 0.00 | 0.00 | 0.00 | 86 | 1020.8 |
| 20260904032305 | 16 | 156 | 0.0 | 0.0 | 0.00 | 0.00 | 0.00 | 86 | 1020.9 |
| 20260904031303 | 16 | 170 | 0.0 | 0.0 | 0.00 | 0.00 | 0.00 | 87 | 1020.9 |
| 20260904030804 | 16 | 171 | 0.0 | 0.0 | 0.00 | 0.00 | 0.00 | 87 | 1021.2 |
| 20260904030304 | 16 | 200 | 0.0 | 0.0 | 0.00 | 0.00 | 0.00 | 86 | 1021.2 |
| 20260904025803 | 16 | 200 | 0.0 | 0.0 | 0.00 | 0.00 | 0.00 | 86 | 1021.2 |
| 20260904025306 | 16 | 227 | 0.0 | 0.0 | 0.00 | 0.00 | 0.00 | 87 | 1021.2 |
| 20260904024803 | 16 | 227 | 0.0 | 0.0 | 0.00 | 0.00 | 0.00 | 87 | 1021.2 |
| 20260904024303 | 16 | 227 | 0.0 | 0.0 | 0.00 | 0.00 | 0.00 | 88 | 1021.2 |
| 20260904023304 | 16 | 227 | 0.0 | 0.0 | 0.00 | 0.00 | 0.00 | 88 | 1021.3 |
| 20260904022804 | 15 | 227 | 0.0 | 0.0 | 0.00 | 0.00 | 0.00 | 90 | 1021.3 |
| 20260904022306 | 15 | 227 | 0.0 | 0.0 | 0.00 | 0.00 | 0.00 | 90 | 1021.3 |
| 20260904021804 | 15 | 227 | 0.0 | 0.0 | 0.00 | 0.00 | 0.00 | 91 | 1021.3 |
| 20260904021304 | 15 | 227 | 0.0 | 0.0 | 0.00 | 0.00 | 0.00 | 90 | 1021.3 |
| 20260904020804 | 15 | 227 | 0.0 | 0.0 | 0.00 | 0.00 | 0.00 | 90 | 1021.3 |
| 20260904020303 | 15 | 227 | 0.0 | 0.0 | 0.00 | 0.00 | 0.00 | 90 | 1021.3 |
| 20260904015804 | 15 | 227 | 0.0 | 0.0 | 0.00 | 0.00 | 0.00 | 90 | 1021.3 |
| 20260904015306 | 15 | 227 | 0.0 | 0.0 | 0.00 | 0.00 | 0.00 | 89 | 1021.3 |
| 20260904014803 | 15 | 227 | 0.0 | 0.0 | 0.00 | 0.00 | 0.00 | 89 | 1021.3 |
| 20260904014304 | 15 | 227 | 0.0 | 0.0 | 0.00 | 0.00 | 0.00 | 88 | 1021.3 |
| 20260904013804 | 15 | 227 | 0.0 | 0.0 | 0.00 | 0.00 | 0.00 | 88 | 1021.3 |
| 20260904013304 | 16 | 227 | 0.0 | 0.0 | 0.00 | 0.00 | 0.00 | 88 | 1021.3 |
| 20260904011803 | 15 | 263 | 0.0 | 0.0 | 0.00 | 0.00 | 0.00 | 90 | 1021.3 |
| 20260904010804 | 16 | 263 | 0.0 | 0.0 | 0.00 | 0.00 | 0.00 | 89 | 1021.3 |
| 20260904010304 | 16 | 263 | 0.0 | 0.0 | 0.00 | 0.00 | 0.00 | 88 | 1021.3 |
| 20260904005803 | 16 | 263 | 0.0 | 0.0 | 0.00 | 0.00 | 0.00 | 87 | 1021.6 |
| 20260904005306 | 16 | 263 | 0.0 | 0.0 | 0.00 | 0.00 | 0.00 | 87 | 1021.6 |
| 20260904004804 | 16 | 263 | 0.0 | 0.0 | 0.00 | 0.00 | 0.00 | 88 | 1021.6 |
| 20260904004303 | 16 | 263 | 0.0 | 0.0 | 0.00 | 0.00 | 0.00 | 88 | 1021.6 |
| 20260904002804 | 16 | 263 | 0.0 | 0.0 | 0.00 | 0.00 | 0.00 | 88 | 1021.6 |
| 20260904001804 | 16 | 263 | 0.0 | 0.0 | 0.00 | 0.00 | 0.00 | 89 | 1021.8 |
| 20260904000803 | 16 | 263 | 0.0 | 0.0 | 0.00 | 0.00 | 0.00 | 88 | 1021.8 |
| 20260904000304 | 16 | 263 | 0.0 | 0.0 | 0.00 | 0.00 | 0.00 | 88 | 1021.9 |
| 20260903235804 | 16 | 263 | 0.0 | 0.0 | 0.00 | 0.00 | 0.00 | 87 | 1021.9 |
| 20260903235305 | 16 | 263 | 0.0 | 0.0 | 0.00 | 0.00 | 0.00 | 87 | 1021.9 |
| 20260903234304 | 16 | 263 | 0.0 | 0.0 | 0.00 | 0.00 | 0.00 | 86 | 1022.0 |
| 20260903233804 | 16 | 263 | 0.0 | 0.0 | 0.00 | 0.00 | 0.00 | 86 | 1022.0 |
| 20260903232804 | 17 | 263 | 0.0 | 0.0 | 0.00 | 0.00 | 0.00 | 85 | 1022.0 |
| 20260903232306 | 17 | 263 | 0.0 | 0.0 | 0.00 | 0.00 | 0.00 | 84 | 1022.0 |
| 20260903231804 | 17 | 263 | 0.0 | 0.0 | 0.00 | 0.00 | 0.00 | 84 | 1022.0 |
| 20260903231303 | 17 | 263 | 0.0 | 0.0 | 0.00 | 0.00 | 0.00 | 83 | 1021.7 |
| 20260903230803 | 17 | 263 | 0.0 | 0.0 | 0.00 | 0.00 | 0.00 | 82 | 1021.7 |
| 20260903225804 | 17 | 263 | 0.0 | 0.0 | 0.00 | 0.00 | 0.00 | 80 | 1021.7 |
| 20260903225306 | 17 | 263 | 0.0 | 0.0 | 0.00 | 0.00 | 0.00 | 81 | 1021.7 |
| 20260903224804 | 17 | 294 | 0.0 | 0.0 | 0.00 | 0.00 | 0.00 | 82 | 1021.7 |
| 20260903224303 | 17 | 298 | 0.0 | 0.0 | 0.00 | 0.00 | 0.00 | 82 | 1021.7 |
| 20260903223804 | 17 | 298 | 0.0 | 0.0 | 0.00 | 0.00 | 0.00 | 83 | 1021.7 |
| 20260903222803 | 17 | 298 | 0.0 | 0.0 | 0.00 | 0.00 | 0.00 | 84 | 1021.7 |
| 20260903222305 | 17 | 298 | 0.0 | 0.0 | 0.00 | 0.00 | 0.00 | 84 | 1021.7 |
| 20260903221804 | 17 | 298 | 0.0 | 0.0 | 0.00 | 0.00 | 0.00 | 83 | 1021.7 |
| 20260903221303 | 17 | 298 | 0.0 | 0.0 | 0.00 | 0.00 | 0.00 | 83 | 1021.7 |
| 20260903220810 | 17 | 298 | 0.0 | 0.0 | 0.00 | 0.00 | 0.00 | 84 | 1021.7 |
| 20260903220304 | 16 | 298 | 0.0 | 0.0 | 0.00 | 0.00 | 0.00 | 85 | 1021.7 |
| 20260903215803 | 16 | 298 | 0.0 | 0.0 | 0.00 | 0.00 | 0.00 | 85 | 1021.7 |
| 20260903215306 | 17 | 298 | 0.0 | 0.0 | 0.00 | 0.00 | 0.00 | 85 | 1021.7 |
| 20260903214804 | 17 | 298 | 0.0 | 0.0 | 0.00 | 0.00 | 0.00 | 85 | 1021.7 |